createdAt,value
2023-05-15T00:13:51.626Z,24.27
2023-05-15T00:28:53.968Z,24.27
2023-05-15T00:43:57.248Z,22.90
2023-05-15T00:59:02.788Z,26.63
2023-05-15T01:14:07.212Z,25.70
2023-05-15T01:29:22.957Z,24.67
2023-05-15T01:44:32.203Z,22.00
2023-05-15T01:59:37.978Z,23.17
2023-05-15T02:14:41.186Z,27.43
2023-05-15T02:30:03.388Z,35.30
2023-05-15T02:45:07.598Z,37.80
2023-05-15T03:00:13.337Z,38.03
2023-05-15T03:15:15.916Z,37.07
2023-05-15T03:30:18.403Z,35.93
2023-05-15T03:45:21.493Z,32.90
2023-05-15T04:00:24.861Z,36.23
2023-05-15T04:15:28.765Z,30.57
2023-05-15T04:30:31.549Z,31.70
2023-05-15T04:45:33.907Z,30.43
2023-05-15T05:00:36.265Z,40.50
2023-05-15T05:15:38.703Z,43.80
2023-05-15T05:30:47.959Z,44.97
2023-05-15T05:45:50.292Z,39.73
2023-05-15T06:00:52.934Z,53.03
2023-05-15T06:15:55.281Z,44.77
2023-05-15T06:31:00.515Z,42.47
2023-05-15T06:46:03.085Z,37.13
2023-05-15T07:01:07.087Z,36.10
2023-05-15T07:16:09.732Z,33.80
2023-05-15T07:31:12.026Z,37.07
2023-05-15T07:46:14.491Z,35.33
2023-05-15T08:01:16.876Z,33.60
2023-05-15T08:16:19.419Z,31.00
2023-05-15T08:31:21.865Z,30.03
2023-05-15T08:46:24.652Z,26.40
2023-05-15T09:01:28.625Z,24.60
2023-05-15T09:16:31.247Z,22.73
2023-05-15T09:31:37.873Z,22.53
2023-05-15T09:46:40.357Z,22.20
2023-05-15T10:01:45.550Z,18.10
2023-05-15T10:16:51.635Z,18.53
2023-05-15T10:31:54.691Z,17.63
2023-05-15T10:46:59.209Z,21.47
2023-05-15T11:02:38.054Z,19.83
2023-05-15T11:18:06.950Z,10.57
2023-05-15T11:33:13.603Z,7.47
2023-05-15T11:48:17.500Z,7.53
2023-05-15T12:03:27.309Z,10.57
2023-05-15T12:18:31.699Z,10.83
2023-05-15T12:33:34.263Z,10.03
2023-05-15T12:48:36.802Z,9.60
2023-05-15T13:03:39.562Z,9.10
2023-05-15T13:18:42.019Z,18.97
2023-05-15T13:33:44.551Z,21.73
2023-05-15T13:48:46.993Z,19.77
2023-05-15T14:03:49.510Z,15.57
2023-05-15T14:18:52.195Z,19.27
2023-05-15T14:33:54.921Z,18.27
2023-05-15T14:48:57.364Z,18.63
2023-05-15T15:04:00.838Z,20.87
2023-05-15T15:19:04.506Z,27.43
2023-05-15T15:34:09.203Z,26.23
2023-05-15T15:49:11.914Z,27.17
2023-05-15T16:04:14.734Z,25.87
2023-05-15T16:19:17.536Z,22.10
2023-05-15T16:34:20.604Z,22.97
2023-05-15T16:49:23.015Z,28.30
2023-05-15T17:04:25.857Z,28.23
2023-05-15T17:19:28.410Z,24.40
2023-05-15T17:34:31.045Z,26.67
2023-05-15T17:49:34.462Z,17.13
2023-05-15T18:04:37.348Z,12.20
2023-05-15T18:19:46.667Z,12.97
2023-05-15T18:34:50.370Z,11.03
2023-05-15T18:49:53.728Z,9.30
2023-05-15T19:04:56.711Z,7.73
2023-05-15T19:19:59.187Z,6.80
2023-05-15T19:35:01.785Z,7.40
2023-05-15T19:50:05.551Z,5.73
2023-05-15T20:05:08.651Z,5.87
2023-05-15T20:20:12.472Z,5.20
2023-05-15T20:35:14.862Z,6.17
2023-05-15T20:50:18.910Z,6.43
2023-05-15T21:05:21.341Z,6.13
2023-05-15T21:20:23.829Z,5.37
2023-05-15T21:35:29.032Z,7.57
2023-05-15T21:50:34.094Z,8.13
2023-05-15T22:05:36.372Z,7.50
2023-05-15T22:20:39.043Z,7.17
2023-05-15T22:35:41.398Z,8.53
2023-05-15T22:50:44.575Z,6.93
2023-05-15T23:05:46.988Z,5.73
2023-05-15T23:20:50.515Z,6.90
2023-05-15T23:35:52.890Z,5.77
2023-05-15T23:50:55.266Z,4.17
